Language: 


Des rapports , des résumés tant et plus, au choix de chacun....


Données statistiques de la station
Quotidien Rapport Aout 23, 2017 Unités:  Anglais    Métrique   les deux
« Précédent Jour
Suivant Jour »
Quotidien Hebdomadaire Mensuel Annuel Actuel
  Haut: Bas: Moyen:
Température: 87.6 °F 32 °F 68.7 °F
Pt de rosée: 69.8 °F 57.2 °F 62.1 °F
Humidité: 96 % 0 % 79 %
Vitesse du vent: 20.4 mph 0 mph 4 mph
Rafales: 23.3 mph - -
Vent:- - SW
Pression: 30 in 29.9 in -
Précipitation: 0 in    
Historical Graphs
 
 
Données statistiques pour Aout 23, 2017
Heure Température Point de rosée Pression Vent Vitesse du vent Refales Humidité Pluie (taux horaire)
00:01 63.7 °F 60.8 °F 30 in Calm     88 % 0 in
00:06 63.5 °F 60.8 °F 30 in Calm     88 % 0 in
00:11 63.3 °F 60.8 °F 30 in Calm   3.6 mph 89 % 0 in
00:16 63.3 °F 60.8 °F 30 in Calm   3.6 mph 89 % 0 in
00:21 63.1 °F 60.8 °F 30 in Calm   3.1 mph 90 % 0 in
00:26 63.1 °F 60.8 °F 30 in Calm   2.7 mph 90 % 0 in
00:31 63.1 °F 60.8 °F 30 in Calm     90 % 0 in
00:36 63 °F 60.8 °F 30 in Calm   2.7 mph 90 % 0 in
00:46 63 °F 60.8 °F 30 in Calm     90 % 0 in
00:51 62.8 °F 60.8 °F 30 in Calm     91 % 0 in
00:56 62.8 °F 60.8 °F 30 in Calm   1.3 mph 91 % 0 in
01:02 62.6 °F 60.8 °F 30 in Calm   1.3 mph 91 % 0 in
01:07 62.6 °F 60.8 °F 30 in Calm     91 % 0 in
01:12 62.6 °F 60.8 °F 30 in Calm     91 % 0 in
01:17 62.6 °F 60.8 °F 29.9 in Calm     91 % 0 in
01:22 62.6 °F 60.8 °F 29.9 in Calm   1.1 mph 91 % 0 in
01:27 62.6 °F 60.8 °F 29.9 in Calm   1.1 mph 91 % 0 in
01:32 62.6 °F 60.8 °F 30 in Calm     91 % 0 in
01:37 62.6 °F 60.8 °F 30 in Calm   1.3 mph 91 % 0 in
01:42 62.2 °F 59 °F 30 in NE 1.6 mph 3.1 mph 91 % 0 in
01:47 62.1 °F 59 °F 30 in Calm   3.1 mph 91 % 0 in
01:52 61.9 °F 59 °F 30 in Calm   2 mph 91 % 0 in
01:57 61.9 °F 59 °F 30 in Calm     91 % 0 in
02:02 61.9 °F 59 °F 29.9 in Calm     91 % 0 in
02:07 61.7 °F 59 °F 29.9 in Calm     91 % 0 in
02:12 61.7 °F 59 °F 29.9 in Calm     91 % 0 in
02:17 61.7 °F 59 °F 30 in Calm     91 % 0 in
02:22 61.3 °F 59 °F 30 in Calm     91 % 0 in
02:25 61.3 °F 59 °F 30 in Calm     91 % 0 in
02:30 61.3 °F 59 °F 30 in Calm     91 % 0 in
02:35 61.3 °F 59 °F 30 in Calm     91 % 0 in
02:40 61.2 °F 59 °F 30 in Calm     91 % 0 in
02:45 61 °F 59 °F 30 in Calm   2.9 mph 92 % 0 in
02:50 61 °F 59 °F 30 in Calm   2.9 mph 92 % 0 in
02:55 61 °F 59 °F 30 in Calm   1.3 mph 92 % 0 in
03:01 32 °F 59 °F 30 in Calm     0 % 0 in
03:06 32 °F 59 °F 30 in Calm     0 % 0 in
03:11 60.8 °F 59 °F 30 in Calm     92 % 0 in
03:22 60.6 °F 59 °F 30 in Calm     92 % 0 in
03:27 60.6 °F 59 °F 30 in Calm     92 % 0 in
03:32 60.6 °F 59 °F 30 in Calm     92 % 0 in
03:37 60.4 °F 57.2 °F 30 in Calm     92 % 0 in
03:42 60.4 °F 59 °F 30 in Calm     93 % 0 in
03:47 60.4 °F 59 °F 30 in Calm     93 % 0 in
03:52 60.4 °F 59 °F 30 in Calm     93 % 0 in
03:57 60.4 °F 59 °F 30 in Calm     93 % 0 in
04:02 60.4 °F 59 °F 30 in Calm     93 % 0 in
04:07 60.4 °F 59 °F 30 in Calm     93 % 0 in
04:12 60.4 °F 59 °F 30 in Calm     93 % 0 in
04:17 60.4 °F 59 °F 29.9 in Calm     93 % 0 in
04:22 60.4 °F 59 °F 29.9 in Calm     93 % 0 in
04:27 60.3 °F 59 °F 29.9 in Calm     93 % 0 in
04:32 60.3 °F 59 °F 30 in Calm     93 % 0 in
04:37 60.1 °F 59 °F 30 in Calm   1.3 mph 93 % 0 in
04:42 60.1 °F 59 °F 30 in Calm   1.3 mph 93 % 0 in
04:47 60.1 °F 59 °F 29.9 in Calm   2.7 mph 93 % 0 in
04:52 60.1 °F 59 °F 29.9 in Calm   2.7 mph 93 % 0 in
04:57 60.1 °F 59 °F 29.9 in East 2 mph 2 mph 94 % 0 in
05:02 60.1 °F 59 °F 29.9 in Calm   2.7 mph 94 % 0 in
05:07 60.3 °F 59 °F 29.9 in Calm   2.7 mph 94 % 0 in
05:12 60.3 °F 59 °F 29.9 in Calm   1.3 mph 94 % 0 in
05:17 60.4 °F 59 °F 29.9 in Calm   1.1 mph 94 % 0 in
05:22 60.4 °F 59 °F 29.9 in Calm     94 % 0 in
05:27 60.4 °F 59 °F 29.9 in Calm   2.7 mph 94 % 0 in
05:32 60.6 °F 59 °F 29.9 in Calm   2.7 mph 94 % 0 in
05:37 60.6 °F 59 °F 29.9 in Calm     94 % 0 in
05:42 60.6 °F 59 °F 29.9 in Calm     94 % 0 in
05:47 60.6 °F 59 °F 29.9 in Calm     94 % 0 in
05:52 60.4 °F 59 °F 29.9 in Calm     94 % 0 in
05:57 60.4 °F 59 °F 29.9 in Calm     94 % 0 in
06:02 60.1 °F 59 °F 29.9 in Calm     93 % 0 in
06:07 60.1 °F 59 °F 29.9 in Calm     94 % 0 in
06:12 59.7 °F 57.2 °F 29.9 in Calm     93 % 0 in
06:17 59.7 °F 57.2 °F 29.9 in Calm     93 % 0 in
06:23 59.4 °F 57.2 °F 29.9 in Calm     94 % 0 in
06:28 59.4 °F 57.2 °F 29.9 in Calm     94 % 0 in
06:33 59.4 °F 57.2 °F 29.9 in Calm     94 % 0 in
06:38 59.4 °F 57.2 °F 29.9 in Calm     94 % 0 in
06:43 59.2 °F 57.2 °F 29.9 in Calm     95 % 0 in
06:48 59.2 °F 57.2 °F 29.9 in Calm     95 % 0 in
06:53 59 °F 57.2 °F 29.9 in Calm     95 % 0 in
06:58 58.8 °F 57.2 °F 29.9 in Calm   0.9 mph 95 % 0 in
07:03 58.8 °F 57.2 °F 29.9 in Calm   0.9 mph 95 % 0 in
07:08 58.8 °F 59 °F 29.9 in Calm     96 % 0 in
07:13 58.8 °F 59 °F 29.9 in Calm     96 % 0 in
07:18 58.8 °F 59 °F 29.9 in Calm     96 % 0 in
07:23 58.8 °F 59 °F 29.9 in Calm     96 % 0 in
07:28 58.8 °F 59 °F 29.9 in Calm     96 % 0 in
07:33 58.8 °F 59 °F 29.9 in Calm     96 % 0 in
07:38 58.8 °F 59 °F 29.9 in Calm     96 % 0 in
07:43 58.8 °F 59 °F 29.9 in Calm     96 % 0 in
07:48 58.8 °F 59 °F 29.9 in Calm   17.9 mph 96 % 0 in
07:53 61.3 °F 60.8 °F 29.9 in Calm   17.9 mph 96 % 0 in
07:58 62.4 °F 62.6 °F 29.9 in Calm     96 % 0 in
08:04 62.8 °F 60.8 °F 29.9 in Calm     95 % 0 in
08:09 64.2 °F 62.6 °F 29.9 in Calm     95 % 0 in
08:14 64.8 °F 62.6 °F 29.9 in Calm     94 % 0 in
08:19 65.1 °F 62.6 °F 29.9 in Calm     94 % 0 in
08:24 65.8 °F 64.4 °F 29.9 in Calm     93 % 0 in
08:29 66.6 °F 64.4 °F 29.9 in Calm     92 % 0 in
08:34 67.1 °F 64.4 °F 29.9 in Calm     91 % 0 in
08:39 67.5 °F 64.4 °F 29.9 in Calm     91 % 0 in
08:44 68 °F 64.4 °F 29.9 in Calm     89 % 0 in
08:49 68.5 °F 66.2 °F 29.9 in Calm     89 % 0 in
08:54 68.9 °F 66.2 °F 29.9 in Calm     88 % 0 in
08:59 69.6 °F 66.2 °F 29.9 in Calm     88 % 0 in
09:04 70.2 °F 66.2 °F 29.9 in Calm     86 % 0 in
09:09 70.7 °F 66.2 °F 29.9 in Calm     84 % 0 in
09:11 70.9 °F 66.2 °F 29.9 in Calm     84 % 0 in
09:16 71.2 °F 66.2 °F 29.9 in Calm     82 % 0 in
09:21 71.8 °F 66.2 °F 29.9 in Calm     81 % 0 in
09:26 72.5 °F 66.2 °F 29.9 in Calm     81 % 0 in
09:31 73.2 °F 66.2 °F 29.9 in Calm     79 % 0 in
09:37 73.9 °F 66.2 °F 29.9 in Calm     78 % 0 in
09:42 74.7 °F 68 °F 29.9 in Calm     77 % 0 in
09:47 74.8 °F 66.2 °F 29.9 in Calm     72 % 0 in
09:52 74.8 °F 64.4 °F 29.9 in Calm     69 % 0 in
09:57 74.5 °F 62.6 °F 29.9 in Calm     65 % 0 in
10:02 74.7 °F 62.6 °F 29.9 in Calm     66 % 0 in
10:07 74.3 °F 62.6 °F 29.9 in Calm     66 % 0 in
10:12 75 °F 64.4 °F 29.9 in Calm     68 % 0 in
10:17 75.9 °F 64.4 °F 29.9 in Calm     66 % 0 in
10:22 76.6 °F 64.4 °F 29.9 in SW 5.8 mph 8.5 mph 64 % 0 in
10:27 75.6 °F 62.6 °F 29.9 in SSE 5.8 mph 8.5 mph 63 % 0 in
10:32 75.2 °F 62.6 °F 29.9 in SSW 0.9 mph 7.4 mph 64 % 0 in
10:37 75.9 °F 64.4 °F 29.9 in SSW 2.5 mph 6.5 mph 66 % 0 in
10:38 75.9 °F 64.4 °F 29.9 in SW 4.9 mph 6.5 mph 66 % 0 in
10:43 75.6 °F 62.6 °F 29.9 in SSW 4 mph 5.4 mph 64 % 0 in
10:48 76.1 °F 64.4 °F 29.9 in SSE 0.9 mph 4.9 mph 67 % 0 in
10:53 77.2 °F 64.4 °F 29.9 in SSE 1.6 mph 2.9 mph 66 % 0 in
10:58 78.3 °F 66.2 °F 29.9 in SSE 2.9 mph 7.6 mph 65 % 0 in
11:03 78.4 °F 66.2 °F 29.9 in Calm   7.6 mph 64 % 0 in
11:08 78.4 °F 64.4 °F 29.9 in SSE 3.1 mph 6.5 mph 63 % 0 in
11:13 78.6 °F 64.4 °F 29.9 in South 2.5 mph 5.4 mph 62 % 0 in
11:18 79 °F 64.4 °F 29.9 in SSW 4 mph 7.2 mph 61 % 0 in
11:23 79.9 °F 66.2 °F 29.9 in SSW 1.3 mph 7.2 mph 62 % 0 in
11:28 80.4 °F 64.4 °F 29.9 in SSE 3.1 mph 6 mph 58 % 0 in
11:33 80.1 °F 64.4 °F 29.9 in SSW 3.6 mph 6 mph 59 % 0 in
11:38 79.9 °F 64.4 °F 29.9 in SSE 2.5 mph 5.6 mph 59 % 0 in
11:43 80.8 °F 66.2 °F 29.9 in SSE 2.2 mph 3.8 mph 61 % 0 in
11:48 80.6 °F 64.4 °F 29.9 in SSE 2.9 mph 8.1 mph 57 % 0 in
11:53 80.6 °F 64.4 °F 29.9 in Calm   8.1 mph 57 % 0 in
11:58 81 °F 64.4 °F 29.9 in ESE 5.8 mph 6.5 mph 57 % 0 in
12:03 81.1 °F 66.2 °F 29.9 in SSW 3.6 mph 6.5 mph 58 % 0 in
12:08 81.3 °F 64.4 °F 29.9 in WSW 4 mph 5.8 mph 57 % 0 in
12:13 82 °F 66.2 °F 29.9 in SSW 4 mph 6.5 mph 57 % 0 in
12:18 81.9 °F 64.4 °F 29.9 in SSE 5.6 mph 6.5 mph 56 % 0 in
12:23 82.4 °F 66.2 °F 29.9 in Calm   8.5 mph 57 % 0 in
12:28 83.1 °F 66.2 °F 29.9 in SSW 2.5 mph 8.5 mph 56 % 0 in
12:33 83.8 °F 66.2 °F 29.9 in Calm   6.3 mph 54 % 0 in
12:39 83.5 °F 66.2 °F 29.9 in Calm   6.3 mph 55 % 0 in
12:44 83.7 °F 66.2 °F 29.9 in SSE 7.6 mph 7.6 mph 56 % 0 in
12:49 83.5 °F 66.2 °F 29.9 in SSW 2.9 mph 7.6 mph 54 % 0 in
12:54 83.7 °F 64.4 °F 29.9 in South 4.9 mph 8.5 mph 52 % 0 in
12:59 83.5 °F 64.4 °F 29.9 in SSE 6.3 mph 8.5 mph 52 % 0 in
13:04 83.3 °F 64.4 °F 29.9 in Calm   7.8 mph 51 % 0 in
13:09 83.5 °F 66.2 °F 29.9 in SSE 3.1 mph 7.6 mph 53 % 0 in
13:14 83.8 °F 66.2 °F 29.9 in South 3.6 mph 5.6 mph 55 % 0 in
13:19 83.7 °F 66.2 °F 29.9 in SSW 1.6 mph 8.1 mph 53 % 0 in
13:24 82.9 °F 64.4 °F 29.9 in Calm   8.1 mph 52 % 0 in
13:29 82.6 °F 64.4 °F 29.9 in SW 1.1 mph 6.3 mph 55 % 0 in
13:34 82.4 °F 64.4 °F 29.9 in Calm   5.8 mph 55 % 0 in
13:39 82.2 °F 66.2 °F 29.9 in South 0.9 mph 5.4 mph 57 % 0 in
13:44 83.1 °F 66.2 °F 29.9 in Calm   5.4 mph 56 % 0 in
13:49 83.8 °F 66.2 °F 29.9 in Calm   6.5 mph 55 % 0 in
13:55 84 °F 68 °F 29.9 in Calm   6.5 mph 57 % 0 in
14:00 83.8 °F 66.2 °F 29.9 in SE 1.6 mph 5.6 mph 56 % 0 in
14:05 85.1 °F 68 °F 29.9 in Calm   5.4 mph 55 % 0 in
14:10 85.8 °F 66.2 °F 29.9 in SW 6 mph 8.7 mph 53 % 0 in
14:15 86 °F 66.2 °F 29.9 in SW 0.9 mph 8.7 mph 51 % 0 in
14:20 85.5 °F 66.2 °F 29.9 in WSW 3.6 mph 6 mph 53 % 0 in
14:25 85.5 °F 66.2 °F 29.9 in WSW 6 mph 8.9 mph 52 % 0 in
14:30 86.2 °F 66.2 °F 29.9 in South 3.1 mph 8.9 mph 52 % 0 in
14:35 86.4 °F 68 °F 29.9 in SSW 4 mph 8.9 mph 52 % 0 in
14:40 86.9 °F 66.2 °F 29.9 in SW 3.6 mph 8.5 mph 49 % 0 in
14:45 87.3 °F 68 °F 29.9 in SW 4.3 mph 7.8 mph 52 % 0 in
14:50 87.6 °F 68 °F 29.9 in SSW 3.8 mph 7.8 mph 51 % 0 in
14:55 87.4 °F 66.2 °F 29.9 in WSW 4 mph 8.7 mph 50 % 0 in
15:00 87.3 °F 66.2 °F 29.9 in SSW 2.5 mph 8.7 mph 50 % 0 in
15:05 86.7 °F 66.2 °F 29.9 in WSW 6 mph 12.3 mph 50 % 0 in
15:10 86.7 °F 66.2 °F 29.9 in WSW 6.3 mph 12.3 mph 50 % 0 in
15:15 86.7 °F 66.2 °F 29.9 in SW 8.5 mph 9.8 mph 50 % 0 in
15:20 85.5 °F 68 °F 29.9 in WSW 11 mph 11 mph 54 % 0 in
15:25 85.5 °F 69.8 °F 29.9 in West 11.4 mph 15.2 mph 59 % 0 in
15:30 83.7 °F 69.8 °F 29.9 in WSW 18.8 mph 19.9 mph 60 % 0 in
15:35 81 °F 68 °F 29.9 in WSW 17.7 mph 19.9 mph 63 % 0 in
15:40 79 °F 66.2 °F 29.9 in WSW 17.4 mph 19.5 mph 64 % 0 in
15:45 77.5 °F 66.2 °F 29.9 in West 16.8 mph 17.9 mph 68 % 0 in
15:51 76.1 °F 66.2 °F 29.9 in WSW 19.5 mph 21.9 mph 69 % 0 in
15:56 75.4 °F 66.2 °F 29.9 in West 20.4 mph 21.9 mph 72 % 0 in
16:01 75.2 °F 66.2 °F 29.9 in West 19.9 mph 23.3 mph 73 % 0 in
16:06 74.3 °F 66.2 °F 29.9 in West 15.4 mph 23.3 mph 75 % 0 in
16:11 74.1 °F 66.2 °F 29.9 in WSW 13.2 mph 22.8 mph 76 % 0 in
16:16 73.8 °F 66.2 °F 29.9 in West 14.3 mph 19.5 mph 77 % 0 in
16:21 73.4 °F 66.2 °F 29.9 in WSW 10.7 mph 19.5 mph 77 % 0 in
16:26 73.2 °F 66.2 °F 29.9 in West 12.3 mph 17.4 mph 78 % 0 in
16:31 72.9 °F 66.2 °F 29.9 in West 14.1 mph 17.4 mph 78 % 0 in
16:36 72.7 °F 66.2 °F 29.9 in West 13.4 mph 16.3 mph 78 % 0 in
16:41 72.7 °F 66.2 °F 29.9 in WSW 17 mph 17 mph 78 % 0 in
16:46 72.7 °F 66.2 °F 29.9 in WSW 9.8 mph 17 mph 79 % 0 in
16:51 72.7 °F 66.2 °F 29.9 in West 12.8 mph 17 mph 79 % 0 in
16:56 72.1 °F 64.4 °F 29.9 in West 16.3 mph 17.2 mph 78 % 0 in
17:01 71.6 °F 64.4 °F 29.9 in WSW 13 mph 17.4 mph 78 % 0 in
17:06 71.6 °F 64.4 °F 29.9 in West 11 mph 20.8 mph 78 % 0 in
17:11 71.6 °F 64.4 °F 29.9 in WSW 10.5 mph 20.8 mph 78 % 0 in
17:16 71.4 °F 64.4 °F 29.9 in West 9.8 mph 19 mph 79 % 0 in
17:21 71.4 °F 64.4 °F 29.9 in West 13 mph 20.6 mph 78 % 0 in
17:26 71.6 °F 64.4 °F 29.9 in West 17 mph 20.8 mph 78 % 0 in
17:31 71.6 °F 64.4 °F 29.9 in WSW 11 mph 20.8 mph 78 % 0 in
17:36 71.6 °F 64.4 °F 29.9 in West 9.8 mph 18.1 mph 78 % 0 in
17:42 71.6 °F 64.4 °F 29.9 in West 7.4 mph 18.1 mph 78 % 0 in
17:47 71.6 °F 64.4 °F 29.9 in WSW 8.7 mph 14.3 mph 78 % 0 in
17:52 71.6 °F 64.4 °F 29.9 in West 8.7 mph 13.2 mph 78 % 0 in
17:57 70.9 °F 64.4 °F 29.9 in West 11 mph 13.2 mph 79 % 0 in
18:02 70.9 °F 64.4 °F 29.9 in WNW 11.9 mph 15.7 mph 79 % 0 in
18:07 70.9 °F 64.4 °F 29.9 in West 8.5 mph 17 mph 79 % 0 in
18:12 70.9 °F 64.4 °F 29.9 in WSW 12.5 mph 17 mph 79 % 0 in
18:17 70.9 °F 64.4 °F 29.9 in West 8.1 mph 16.1 mph 79 % 0 in
18:22 70.9 °F 64.4 °F 29.9 in SSW 10.1 mph 15.4 mph 79 % 0 in
18:27 70.9 °F 64.4 °F 29.9 in West 12.3 mph 13.2 mph 79 % 0 in
18:32 70.9 °F 64.4 °F 29.9 in West 10.7 mph 14.8 mph 79 % 0 in
18:37 69.8 °F 62.6 °F 29.9 in West 10.1 mph 14.8 mph 78 % 0 in
18:42 69.8 °F 62.6 °F 29.9 in WSW 14.8 mph 14.8 mph 78 % 0 in
18:47 69.8 °F 62.6 °F 29.9 in West 7.8 mph 14.8 mph 78 % 0 in
18:52 69.8 °F 62.6 °F 29.9 in West 9.4 mph 14.8 mph 78 % 0 in
18:57 69.8 °F 62.6 °F 29.9 in WSW 8.7 mph 15.2 mph 78 % 0 in
19:02 69.3 °F 62.6 °F 29.9 in WSW 6.3 mph 15.2 mph 78 % 0 in
19:07 69.3 °F 62.6 °F 29.9 in WSW 7.4 mph 12.5 mph 78 % 0 in
19:08 69.3 °F 62.6 °F 29.9 in West 9.2 mph 12.5 mph 78 % 0 in
19:13 69.3 °F 62.6 °F 29.9 in SW 12.8 mph 13.2 mph 78 % 0 in
19:18 69.3 °F 62.6 °F 29.9 in West 10.5 mph 13.9 mph 78 % 0 in
19:23 69.3 °F 62.6 °F 29.9 in WSW 8.5 mph 14.1 mph 78 % 0 in
19:28 69.3 °F 62.6 °F 29.9 in WSW 10.1 mph 14.1 mph 78 % 0 in
19:33 69.3 °F 62.6 °F 29.9 in West 10.3 mph 13 mph 78 % 0 in
19:34 69.3 °F 62.6 °F 29.9 in West 12.8 mph 13 mph 78 % 0 in
19:39 69.3 °F 62.6 °F 29.9 in West 8.1 mph 14.5 mph 78 % 0 in
19:42 69.3 °F 62.6 °F 29.9 in West 10.3 mph 14.5 mph 78 % 0 in
19:47 69.3 °F 62.6 °F 30 in WSW 8.9 mph 16.6 mph 78 % 0 in
19:52 69.3 °F 62.6 °F 30 in WSW 8.7 mph 16.6 mph 78 % 0 in
19:57 69.3 °F 62.6 °F 30 in SW 9.6 mph 12.8 mph 78 % 0 in
20:02 69.3 °F 62.6 °F 30 in West 15.9 mph 15.9 mph 78 % 0 in
20:07 66.7 °F 59 °F 30 in WSW 6.5 mph 15.9 mph 77 % 0 in
20:12 66.7 °F 59 °F 30 in West 5.4 mph 13.4 mph 77 % 0 in
20:17 66.2 °F 59 °F 30 in West 10.3 mph 12.5 mph 78 % 0 in
20:27 65.7 °F 59 °F 30 in West 10.7 mph 15.4 mph 79 % 0 in
20:32 65.7 °F 59 °F 30 in West 8.5 mph 15.4 mph 80 % 0 in
20:37 65.3 °F 59 °F 30 in West 8.5 mph 14.8 mph 80 % 0 in
20:42 65.1 °F 59 °F 30 in WSW 6.3 mph 12.1 mph 81 % 0 in
20:46 64.9 °F 59 °F 30 in West 5.8 mph 11.2 mph 81 % 0 in
20:51 64.8 °F 59 °F 30 in WSW 5.8 mph 10.7 mph 82 % 0 in
20:56 64.6 °F 59 °F 30 in West 7.8 mph 11.9 mph 82 % 0 in
21:01 64.4 °F 59 °F 30 in WSW 8.1 mph 11.9 mph 83 % 0 in
21:06 64.2 °F 59 °F 30 in WSW 5.4 mph 9.8 mph 83 % 0 in
21:11 64 °F 59 °F 30 in West 8.5 mph 10.3 mph 84 % 0 in
21:16 63.9 °F 59 °F 30 in WSW 8.1 mph 10.3 mph 85 % 0 in
21:21 63.7 °F 59 °F 30 in SSW 4.3 mph 10.1 mph 85 % 0 in
21:26 63.5 °F 59 °F 30 in WSW 7.4 mph 8.7 mph 85 % 0 in
21:31 63.3 °F 59 °F 29.9 in WSW 6 mph 10.5 mph 86 % 0 in
21:36 63.3 °F 59 °F 29.9 in WSW 5.6 mph 11.2 mph 87 % 0 in
21:41 63.3 °F 59 °F 29.9 in West 6.7 mph 11.2 mph 87 % 0 in
21:46 63.1 °F 59 °F 30 in West 5.4 mph 11 mph 87 % 0 in
21:51 63 °F 59 °F 30 in WSW 7.4 mph 8.5 mph 87 % 0 in
21:57 62.8 °F 59 °F 30 in WSW 6 mph 9.6 mph 88 % 0 in
22:02 62.8 °F 59 °F 29.9 in WSW 5.4 mph 9.6 mph 88 % 0 in
22:07 62.6 °F 59 °F 29.9 in West 6.5 mph 8.5 mph 89 % 0 in
22:12 62.6 °F 59 °F 29.9 in West 9.6 mph 9.6 mph 89 % 0 in
22:17 62.4 °F 59 °F 30 in West 5.8 mph 9.6 mph 89 % 0 in
22:22 62.2 °F 59 °F 30 in WSW 10.1 mph 11.2 mph 90 % 0 in
22:27 62.2 °F 59 °F 30 in WSW 6.5 mph 11.2 mph 90 % 0 in
22:32 62.1 °F 59 °F 30 in WSW 5.6 mph 10.3 mph 91 % 0 in
22:37 62.1 °F 59 °F 30 in West 5.8 mph 9.6 mph 91 % 0 in
22:42 61.9 °F 59 °F 30 in WSW 6 mph 9.6 mph 91 % 0 in
22:47 61.9 °F 59 °F 30 in SSW 6 mph 8.5 mph 91 % 0 in
22:52 61.7 °F 59 °F 30 in WSW 5.6 mph 8.1 mph 91 % 0 in
22:57 61.5 °F 59 °F 30 in West 4.3 mph 7.4 mph 91 % 0 in
23:02 61.3 °F 59 °F 30 in WSW 5.4 mph 8.5 mph 92 % 0 in
23:07 61.3 °F 59 °F 30 in West 4.3 mph 8.5 mph 92 % 0 in
23:12 61.3 °F 59 °F 30 in WSW 2 mph 7.8 mph 92 % 0 in
23:17 61.3 °F 59 °F 30 in WSW 4 mph 7.8 mph 92 % 0 in
23:22 61.3 °F 59 °F 30 in Calm   7.8 mph 92 % 0 in
23:27 61.3 °F 59 °F 30 in Calm   7.8 mph 92 % 0 in
23:32 61.3 °F 59 °F 30 in Calm   5.8 mph 92 % 0 in
23:37 61.3 °F 59 °F 30 in WSW 0.9 mph 6.5 mph 92 % 0 in
23:42 61.3 °F 59 °F 30 in SW 3.8 mph 6.5 mph 92 % 0 in
23:47 61.3 °F 59 °F 30 in Calm   4.9 mph 92 % 0 in
23:52 61.3 °F 59 °F 30 in Calm   4.5 mph 92 % 0 in
23:57 61.3 °F 59 °F 30 in WSW 3.6 mph 4.3 mph 92 % 0 in
Le Gheer Warneton
Courtoisie de Weather Underground - 2.25 mb

Mise a jour : 18/12/2017 04:13:12
Généré par Cumulus 1.9.4 (1099)